Time;durP1;ratioP1;P1;durP2;ratioP2;P2;SDS_P1;SDS_P2;PMS_P1;PMS_P2;Temp;Humidity;BMP_temperature;BMP_pressure;BME280_temperature;BME280_humidity;BME280_pressure;Samples;Min_cycle;Max_cycle;Signal;HPM_P1;HPM_P2
2024/02/23 00:01:33;;;;;;;119.35;112.65;;;7.80;99.90;;;;;;5035543;28;20036;-74
2024/02/23 00:03:59;;;;;;;155.13;146.40;;;7.70;99.90;;;;;;5035460;28;20045;-73
2024/02/23 00:06:27;;;;;;;145.70;137.57;;;7.80;99.90;;;;;;5034297;28;20045;-73
2024/02/23 00:08:56;;;;;;;153.02;144.75;;;7.70;99.90;;;;;;5036173;28;20398;-73
2024/02/23 00:11:23;;;;;;;132.88;125.40;;;7.70;99.90;;;;;;5035678;28;20045;-73
2024/02/23 00:13:49;;;;;;;100.65;95.25;;;7.70;99.90;;;;;;5034263;28;20041;-73
2024/02/23 00:16:15;;;;;;;131.43;124.07;;;7.70;99.90;;;;;;5034579;28;20045;-73
2024/02/23 00:18:41;;;;;;;103.88;98.28;;;7.70;99.90;;;;;;5033974;28;20044;-74
2024/02/23 00:21:07;;;;;;;105.55;99.60;;;7.70;99.90;;;;;;5035360;28;20385;-73
2024/02/23 00:23:33;;;;;;;80.85;76.57;;;7.60;99.90;;;;;;5035781;28;20044;-73
2024/02/23 00:25:59;;;;;;;98.25;92.78;;;7.70;99.90;;;;;;5035245;28;20687;-74
2024/02/23 00:28:25;;;;;;;103.15;97.43;;;7.60;99.90;;;;;;5035254;28;20034;-74
2024/02/23 00:30:52;;;;;;;131.07;123.80;;;7.60;99.90;;;;;;5034858;28;20493;-73
2024/02/23 00:33:18;;;;;;;195.40;184.88;;;7.60;99.90;;;;;;5035064;28;20475;-73
2024/02/23 00:35:44;;;;;;;235.57;222.75;;;7.60;99.90;;;;;;5035203;28;20056;-73
2024/02/23 00:38:11;;;;;;;257.95;244.00;;;7.60;99.90;;;;;;5035389;28;20447;-73
2024/02/23 00:40:38;;;;;;;153.68;145.48;;;7.60;99.90;;;;;;5034352;28;20037;-73
2024/02/23 00:43:04;;;;;;;142.65;135.05;;;7.60;99.90;;;;;;5036287;28;20375;-73
2024/02/23 00:45:30;;;;;;;90.50;85.85;;;7.60;99.90;;;;;;5033210;28;20075;-73
2024/02/23 00:47:59;;;;;;;104.65;99.25;;;7.60;99.90;;;;;;5034934;28;20026;-73
2024/02/23 00:50:26;;;;;;;100.75;95.75;;;7.50;99.90;;;;;;5032814;28;20037;-73
2024/02/23 00:52:53;;;;;;;88.22;83.72;;;7.50;99.90;;;;;;5035074;28;20026;-73
2024/02/23 00:55:19;;;;;;;114.07;108.30;;;7.50;99.90;;;;;;5034520;28;20424;-73
2024/02/23 00:57:45;;;;;;;114.07;108.15;;;7.50;99.90;;;;;;5034860;28;20045;-73
2024/02/23 01:00:12;;;;;;;113.13;107.35;;;7.40;99.90;;;;;;5033840;28;20474;-73
2024/02/23 01:02:40;;;;;;;110.55;104.75;;;7.40;99.90;;;;;;5034181;28;20045;-73
2024/02/23 01:05:09;;;;;;;106.82;101.32;;;7.40;99.90;;;;;;5034442;28;20026;-73
2024/02/23 01:07:35;;;;;;;106.35;100.68;;;7.40;99.90;;;;;;5033690;28;20057;-73
2024/02/23 01:10:01;;;;;;;104.03;98.75;;;7.40;99.90;;;;;;5033014;28;20037;-73
2024/02/23 01:12:27;;;;;;;133.13;126.38;;;7.40;99.90;;;;;;5033735;28;20037;-74
2024/02/23 01:14:53;;;;;;;149.25;141.63;;;7.40;99.90;;;;;;5034548;28;20037;-73
2024/02/23 01:17:19;;;;;;;167.90;159.18;;;7.40;99.90;;;;;;5033234;28;20041;-73
2024/02/23 01:19:46;;;;;;;170.32;161.38;;;7.40;99.90;;;;;;5034508;28;20487;-73
2024/02/23 01:22:12;;;;;;;177.93;168.90;;;7.40;99.90;;;;;;5033990;28;20041;-73
2024/02/23 01:24:38;;;;;;;167.85;159.30;;;7.40;99.90;;;;;;5034332;28;20033;-73
2024/02/23 01:27:04;;;;;;;201.15;190.68;;;7.40;99.90;;;;;;5032609;28;20066;-73
2024/02/23 01:29:30;;;;;;;161.40;152.90;;;7.40;99.90;;;;;;5032940;28;20025;-73
2024/02/23 01:31:56;;;;;;;167.55;159.00;;;7.40;99.90;;;;;;5032727;28;20052;-74
2024/02/23 01:34:22;;;;;;;181.48;171.90;;;7.40;99.90;;;;;;5034165;28;20029;-74
2024/02/23 01:36:48;;;;;;;136.70;129.65;;;7.40;99.90;;;;;;5034021;28;20732;-73
2024/02/23 01:39:15;;;;;;;151.25;143.27;;;7.30;99.90;;;;;;5033678;28;20045;-73
2024/02/23 01:41:42;;;;;;;147.93;140.23;;;7.40;99.90;;;;;;5033177;28;20052;-73
2024/02/23 01:44:08;;;;;;;132.98;126.05;;;7.40;99.90;;;;;;5033594;28;20494;-73
2024/02/23 01:46:36;;;;;;;124.00;117.75;;;7.40;99.90;;;;;;5032936;28;20121;-73
2024/02/23 01:49:02;;;;;;;129.40;122.93;;;7.40;99.90;;;;;;5032798;28;20029;-73
2024/02/23 01:51:28;;;;;;;160.27;151.63;;;7.40;99.90;;;;;;5032100;28;20037;-73
2024/02/23 01:53:54;;;;;;;146.52;138.77;;;7.40;99.90;;;;;;5031657;28;20453;-74
2024/02/23 01:56:20;;;;;;;138.65;131.52;;;7.30;99.90;;;;;;5032341;28;20033;-73
2024/02/23 01:58:47;;;;;;;156.20;147.85;;;7.30;99.90;;;;;;5032154;28;20497;-73
2024/02/23 02:01:13;;;;;;;162.63;154.20;;;7.30;99.90;;;;;;5031827;28;20034;-74
2024/02/23 02:03:39;;;;;;;148.30;140.68;;;7.30;99.90;;;;;;5033525;28;20478;-74
2024/02/23 02:06:09;;;;;;;172.25;163.32;;;7.30;99.90;;;;;;5032924;28;20033;-74
2024/02/23 02:08:35;;;;;;;178.50;168.65;;;7.30;99.90;;;;;;5031544;28;20037;-73
2024/02/23 02:11:01;;;;;;;191.38;180.82;;;7.30;99.90;;;;;;5030982;28;20034;-73
2024/02/23 02:13:31;;;;;;;159.52;151.00;;;7.30;99.90;;;;;;5033235;28;20030;-74
2024/02/23 02:16:01;;;;;;;133.85;126.80;;;7.30;99.90;;;;;;5032087;28;20038;-73
2024/02/23 02:18:27;;;;;;;126.25;119.50;;;7.30;99.90;;;;;;5032035;28;20027;-73
2024/02/23 02:20:59;;;;;;;119.85;113.20;;;7.30;99.90;;;;;;5032555;28;20030;-74
2024/02/23 02:23:28;;;;;;;98.30;93.22;;;7.30;99.90;;;;;;5030259;28;20037;-74
2024/02/23 02:25:54;;;;;;;108.45;102.38;;;7.40;99.90;;;;;;5031622;28;20390;-74
2024/02/23 02:28:20;;;;;;;90.40;85.45;;;7.30;99.90;;;;;;5032996;28;20032;-74
2024/02/23 02:30:47;;;;;;;96.90;91.75;;;7.30;99.90;;;;;;5030089;28;20509;-72
2024/02/23 02:33:13;;;;;;;96.80;91.55;;;7.30;99.90;;;;;;5031833;28;20025;-74
2024/02/23 02:35:39;;;;;;;93.43;88.18;;;7.30;99.90;;;;;;5033022;28;20385;-74
2024/02/23 02:38:05;;;;;;;97.20;91.88;;;7.30;99.90;;;;;;5033245;28;20045;-73
2024/02/23 02:40:31;;;;;;;91.65;86.75;;;7.30;99.90;;;;;;5032290;28;20108;-74
2024/02/23 02:42:58;;;;;;;125.88;119.15;;;7.30;99.90;;;;;;5030839;28;20038;-74
2024/02/23 02:45:24;;;;;;;141.40;133.82;;;7.30;99.90;;;;;;5031865;28;20033;-74
2024/02/23 02:47:50;;;;;;;135.43;128.07;;;7.30;99.90;;;;;;5032791;28;20053;-73
2024/02/23 02:50:16;;;;;;;148.38;140.35;;;7.40;99.90;;;;;;5032411;28;20037;-74
2024/02/23 02:52:42;;;;;;;134.48;127.03;;;7.40;99.90;;;;;;5031072;28;20042;-74
2024/02/23 02:55:08;;;;;;;172.43;162.43;;;7.40;99.90;;;;;;5032175;28;20034;-74
2024/02/23 02:57:37;;;;;;;139.93;132.23;;;7.30;99.90;;;;;;5032459;28;20089;-73
2024/02/23 03:00:08;;;;;;;137.85;130.15;;;7.30;99.90;;;;;;5031632;28;20041;-74
2024/02/23 03:02:37;;;;;;;130.60;123.05;;;7.30;99.90;;;;;;5028964;28;20068;-74
2024/02/23 03:05:03;;;;;;;122.43;115.93;;;7.30;99.90;;;;;;5028080;28;20027;-74
2024/02/23 03:07:30;;;;;;;95.80;90.35;;;7.30;99.90;;;;;;5027427;28;20049;-74
2024/02/23 03:09:56;;;;;;;84.07;79.20;;;7.30;99.90;;;;;;5030249;28;20032;-74
2024/02/23 03:12:22;;;;;;;86.40;81.47;;;7.30;99.90;;;;;;5029623;28;20497;-73
2024/02/23 03:14:48;;;;;;;89.50;84.38;;;7.30;99.90;;;;;;5036606;28;20029;-74
2024/02/23 03:17:14;;;;;;;82.05;77.18;;;7.30;99.90;;;;;;5029424;28;20033;-73
2024/02/23 03:19:40;;;;;;;90.75;85.93;;;7.30;99.90;;;;;;5028732;28;20037;-74
2024/02/23 03:22:06;;;;;;;67.43;63.53;;;7.30;99.90;;;;;;5028583;28;20029;-74
2024/02/23 03:24:32;;;;;;;111.38;105.45;;;7.20;99.90;;;;;;5030758;28;20491;-74
2024/02/23 03:26:58;;;;;;;108.68;102.63;;;7.30;99.90;;;;;;5029861;28;20509;-74
2024/02/23 03:29:24;;;;;;;122.20;115.32;;;7.20;99.90;;;;;;5030287;28;20029;-74
2024/02/23 03:31:51;;;;;;;122.05;115.05;;;7.30;99.90;;;;;;5029099;28;20038;-74
2024/02/23 03:34:17;;;;;;;79.30;74.55;;;7.30;99.90;;;;;;5029877;28;20029;-74
2024/02/23 03:36:43;;;;;;;70.50;66.45;;;7.20;99.90;;;;;;5030594;28;20042;-74
2024/02/23 03:39:10;;;;;;;69.80;65.70;;;7.20;99.90;;;;;;5032092;28;20032;-74
2024/02/23 03:41:36;;;;;;;62.45;58.50;;;7.20;99.90;;;;;;5030977;28;20033;-74
2024/02/23 03:44:02;;;;;;;72.90;68.63;;;7.10;99.90;;;;;;5031585;28;20029;-74
2024/02/23 03:46:28;;;;;;;62.20;58.28;;;7.10;99.90;;;;;;5030803;28;20124;-74
2024/02/23 03:48:54;;;;;;;64.55;60.35;;;7.10;99.90;;;;;;5031935;28;20032;-74
2024/02/23 03:51:20;;;;;;;67.88;64.05;;;7.10;99.90;;;;;;5030919;28;20037;-74
2024/02/23 03:53:46;;;;;;;74.63;70.07;;;7.10;99.90;;;;;;5031260;28;20029;-74
2024/02/23 03:56:12;;;;;;;82.60;77.82;;;7.10;99.90;;;;;;5031287;28;20034;-74
2024/02/23 03:58:38;;;;;;;87.22;82.18;;;7.00;99.90;;;;;;5031689;28;20041;-74
2024/02/23 04:01:05;;;;;;;91.07;85.83;;;7.10;99.90;;;;;;5030751;28;20430;-75
2024/02/23 04:03:31;;;;;;;87.88;82.72;;;7.10;99.90;;;;;;5030846;28;20025;-74
2024/02/23 04:05:57;;;;;;;84.13;79.22;;;7.10;99.90;;;;;;5030775;28;20026;-74
2024/02/23 04:08:23;;;;;;;101.80;96.10;;;7.00;99.90;;;;;;5030911;28;20100;-75
2024/02/23 04:10:49;;;;;;;111.43;104.88;;;7.00;99.90;;;;;;5030864;28;20033;-74
2024/02/23 04:13:17;;;;;;;128.25;120.82;;;7.10;99.90;;;;;;5031594;28;20398;-74
2024/02/23 04:15:44;;;;;;;133.35;125.82;;;7.10;99.90;;;;;;5030732;28;20025;-74
2024/02/23 04:18:10;;;;;;;101.97;96.50;;;7.10;99.90;;;;;;5031643;28;20482;-74
2024/02/23 04:20:36;;;;;;;131.43;124.03;;;7.10;99.90;;;;;;5031351;28;20040;-74
2024/02/23 04:23:02;;;;;;;105.13;99.15;;;7.10;99.90;;;;;;5030882;28;20040;-74
2024/02/23 04:25:28;;;;;;;109.50;103.40;;;7.10;99.90;;;;;;5031285;28;20101;-74
2024/02/23 04:27:54;;;;;;;100.88;94.78;;;7.10;99.90;;;;;;5030670;28;20596;-74
2024/02/23 04:30:20;;;;;;;90.43;84.85;;;7.10;99.90;;;;;;5027523;28;20044;-74
2024/02/23 04:32:46;;;;;;;95.10;89.75;;;7.10;99.90;;;;;;5027100;28;20033;-74
2024/02/23 04:35:12;;;;;;;83.22;78.28;;;7.10;99.90;;;;;;5030607;28;20025;-74
2024/02/23 04:37:39;;;;;;;74.70;70.55;;;7.10;99.90;;;;;;5031544;28;20029;-74
2024/02/23 04:40:05;;;;;;;73.63;69.23;;;7.20;99.90;;;;;;5025254;28;20022;-74
2024/02/23 04:42:31;;;;;;;104.30;98.60;;;7.20;99.90;;;;;;5029052;28;20486;-74
2024/02/23 04:44:57;;;;;;;108.53;102.20;;;7.20;99.90;;;;;;5033149;28;20013;-74
2024/02/23 04:47:23;;;;;;;142.77;135.25;;;7.20;99.90;;;;;;5034185;28;20402;-74
2024/02/23 04:49:50;;;;;;;113.22;107.05;;;7.20;99.90;;;;;;5035304;28;20028;-74
2024/02/23 04:52:16;;;;;;;121.93;114.93;;;7.20;99.90;;;;;;5034945;28;20025;-75
2024/02/23 04:54:42;;;;;;;121.50;114.65;;;7.20;99.90;;;;;;5035096;28;20037;-74
2024/02/23 04:57:08;;;;;;;153.73;145.10;;;7.20;99.90;;;;;;5033835;28;20038;-74
2024/02/23 04:59:34;;;;;;;117.85;111.40;;;7.30;99.90;;;;;;5034813;28;20029;-73
2024/02/23 05:02:00;;;;;;;108.57;102.40;;;7.30;99.90;;;;;;5034268;28;20056;-74
2024/02/23 05:04:26;;;;;;;119.10;112.32;;;7.30;99.90;;;;;;5032933;28;20045;-74
2024/02/23 05:06:52;;;;;;;123.10;115.90;;;7.30;99.90;;;;;;5034644;28;20049;-74
2024/02/23 05:09:20;;;;;;;136.95;128.48;;;7.30;99.90;;;;;;5033224;28;20036;-74
2024/02/23 05:11:47;;;;;;;112.50;106.32;;;7.30;99.90;;;;;;5034123;28;20064;-74
2024/02/23 05:14:13;;;;;;;123.80;116.82;;;7.20;99.90;;;;;;5033408;28;20045;-74
2024/02/23 05:16:39;;;;;;;120.38;113.70;;;7.20;99.90;;;;;;5033089;28;20037;-74
2024/02/23 05:19:06;;;;;;;116.45;109.63;;;7.20;99.90;;;;;;5033707;28;20497;-74
2024/02/23 05:21:32;;;;;;;124.03;116.77;;;7.20;99.90;;;;;;5033930;28;20029;-74
2024/02/23 05:23:58;;;;;;;112.30;105.88;;;7.10;99.90;;;;;;5034051;28;20045;-76
2024/02/23 05:26:24;;;;;;;100.13;94.75;;;7.10;99.90;;;;;;5034429;28;20040;-73
2024/02/23 05:28:50;;;;;;;98.53;92.78;;;7.20;99.90;;;;;;5028173;28;20037;-75
2024/02/23 05:31:17;;;;;;;90.70;85.47;;;7.10;99.90;;;;;;5033212;28;20520;-74
2024/02/23 05:33:43;;;;;;;208.48;96.60;;;7.10;99.90;;;;;;5031647;28;20041;-74
2024/02/23 05:36:09;;;;;;;94.20;88.80;;;7.10;99.90;;;;;;5034320;28;20466;-74
2024/02/23 05:38:35;;;;;;;103.55;97.78;;;7.20;99.90;;;;;;5033945;28;20029;-75
2024/02/23 05:41:01;;;;;;;88.45;83.53;;;7.20;99.90;;;;;;5034281;28;20487;-74
2024/02/23 05:43:27;;;;;;;99.78;93.65;;;7.20;99.90;;;;;;5034020;28;20053;-74
2024/02/23 05:45:57;;;;;;;102.85;97.18;;;7.20;99.90;;;;;;5033222;28;20482;-74
2024/02/23 05:48:23;;;;;;;95.28;89.57;;;7.20;99.90;;;;;;5033955;28;20396;-74
2024/02/23 05:50:49;;;;;;;85.40;80.50;;;7.20;99.90;;;;;;5033641;28;20033;-73
2024/02/23 05:53:15;;;;;;;97.25;91.47;;;7.20;99.90;;;;;;5033671;28;20387;-74
2024/02/23 05:55:41;;;;;;;132.38;124.57;;;7.10;99.90;;;;;;5033786;28;20093;-74
2024/02/23 05:58:07;;;;;;;122.80;115.72;;;7.10;99.90;;;;;;5033930;28;20513;-74
2024/02/23 06:00:34;;;;;;;118.57;111.35;;;7.00;99.90;;;;;;5033385;28;20040;-74
2024/02/23 06:03:00;;;;;;;133.47;125.63;;;7.00;99.90;;;;;;5033075;28;20068;-74
2024/02/23 06:05:26;;;;;;;94.47;88.72;;;7.00;99.90;;;;;;5034087;28;20033;-75
2024/02/23 06:07:52;;;;;;;113.90;107.70;;;7.00;99.90;;;;;;5033259;28;20037;-74
2024/02/23 06:10:18;;;;;;;115.40;108.25;;;7.10;99.90;;;;;;5033709;28;20031;-74
2024/02/23 06:12:44;;;;;;;124.85;117.75;;;7.00;99.90;;;;;;5033757;28;20590;-74
2024/02/23 06:15:10;;;;;;;106.22;100.30;;;7.10;99.90;;;;;;5033150;28;20029;-74
2024/02/23 06:17:39;;;;;;;76.70;71.87;;;7.00;99.90;;;;;;5033980;28;20040;-74
2024/02/23 06:20:07;;;;;;;95.97;90.17;;;6.90;99.90;;;;;;5032561;28;20063;-74
2024/02/23 06:22:34;;;;;;;110.90;104.50;;;6.90;99.90;;;;;;5033190;28;20378;-74
2024/02/23 06:25:00;;;;;;;97.53;91.60;;;6.90;99.90;;;;;;5031931;28;20041;-74
2024/02/23 06:27:27;;;;;;;103.60;97.47;;;6.90;99.90;;;;;;5033289;28;20056;-74
2024/02/23 06:29:53;;;;;;;121.60;114.10;;;6.90;99.90;;;;;;5033351;28;20493;-74
2024/02/23 06:32:19;;;;;;;127.18;120.18;;;7.00;99.90;;;;;;5032423;28;20038;-74
2024/02/23 06:34:46;;;;;;;120.70;113.83;;;6.90;99.90;;;;;;5032665;28;20037;-74
2024/02/23 06:37:13;;;;;;;113.20;106.40;;;6.90;99.90;;;;;;5032860;28;20037;-74
2024/02/23 06:39:39;;;;;;;127.10;119.53;;;6.90;99.90;;;;;;5033141;28;20037;-74
2024/02/23 06:42:06;;;;;;;135.57;127.87;;;7.00;99.90;;;;;;5032781;28;20068;-74
2024/02/23 06:44:32;;;;;;;113.10;106.47;;;6.90;99.90;;;;;;5033445;28;20386;-74
2024/02/23 06:46:58;;;;;;;125.07;118.00;;;6.90;99.90;;;;;;5032500;28;20060;-74
2024/02/23 06:49:24;;;;;;;142.90;134.80;;;6.90;99.90;;;;;;5023865;28;20045;-73
2024/02/23 06:51:50;;;;;;;154.33;145.03;;;6.90;99.90;;;;;;5032818;28;20033;-75
2024/02/23 06:54:17;;;;;;;187.38;176.43;;;6.90;99.90;;;;;;5033096;28;20029;-74
2024/02/23 06:56:43;;;;;;;214.95;202.00;;;6.90;99.90;;;;;;5032496;28;20056;-74
2024/02/23 06:59:10;;;;;;;150.60;142.40;;;6.90;99.90;;;;;;5032907;28;20037;-74
2024/02/23 07:01:37;;;;;;;194.80;183.75;;;6.90;99.90;;;;;;5032826;28;20056;-74
2024/02/23 07:04:03;;;;;;;216.23;203.40;;;6.90;99.90;;;;;;5032257;28;20414;-74
2024/02/23 07:06:31;;;;;;;167.50;157.27;;;7.00;99.90;;;;;;5032861;28;20056;-74
2024/02/23 07:08:57;;;;;;;209.10;197.27;;;7.00;99.90;;;;;;5031748;28;20060;-74
2024/02/23 07:11:23;;;;;;;263.27;247.77;;;7.00;99.90;;;;;;5031623;28;20036;-74
2024/02/23 07:13:49;;;;;;;218.80;205.98;;;7.10;99.90;;;;;;5022998;28;20371;-75
2024/02/23 07:16:15;;;;;;;254.38;238.90;;;7.10;99.90;;;;;;5031381;28;20506;-74
2024/02/23 07:18:42;;;;;;;262.25;246.63;;;7.10;99.90;;;;;;5031914;28;20029;-75
2024/02/23 07:21:08;;;;;;;217.82;204.25;;;7.20;99.90;;;;;;5030649;28;20053;-74
2024/02/23 07:23:34;;;;;;;191.35;179.73;;;7.10;99.90;;;;;;5031878;28;20033;-75
2024/02/23 07:26:00;;;;;;;210.55;196.82;;;7.10;99.90;;;;;;5032504;28;20036;-74
2024/02/23 07:28:26;;;;;;;176.80;166.40;;;7.10;99.90;;;;;;5031111;28;20060;-75
2024/02/23 07:30:52;;;;;;;121.82;114.57;;;7.10;99.90;;;;;;5031793;28;20033;-75
2024/02/23 07:33:18;;;;;;;109.32;102.78;;;7.10;99.90;;;;;;5031959;28;20037;-75
2024/02/23 07:35:44;;;;;;;120.50;113.25;;;7.10;99.90;;;;;;5032373;28;20462;-75
2024/02/23 07:38:11;;;;;;;122.22;115.13;;;7.20;99.90;;;;;;5030272;28;20029;-75
2024/02/23 07:40:37;;;;;;;155.48;146.30;;;7.20;99.90;;;;;;5027466;28;20036;-74
2024/02/23 07:43:03;;;;;;;195.45;183.60;;;7.20;99.90;;;;;;5027234;28;20521;-73
2024/02/23 07:45:29;;;;;;;157.63;148.25;;;7.20;99.90;;;;;;5021710;28;20411;-72
2024/02/23 07:47:55;;;;;;;158.10;148.40;;;7.20;99.90;;;;;;5030773;28;20048;-73
2024/02/23 07:50:22;;;;;;;123.13;116.03;;;7.20;99.90;;;;;;5031123;28;20053;-73
2024/02/23 07:52:48;;;;;;;90.63;85.65;;;7.20;99.90;;;;;;5031851;28;20033;-72
2024/02/23 07:55:14;;;;;;;115.27;108.27;;;7.20;99.90;;;;;;5030913;28;20036;-73
2024/02/23 07:57:40;;;;;;;107.90;101.27;;;7.30;99.90;;;;;;5031816;28;20028;-72
2024/02/23 08:00:09;;;;;;;95.40;89.97;;;7.20;99.90;;;;;;5031278;28;20029;-72
2024/02/23 08:02:36;;;;;;;114.03;107.78;;;7.30;99.90;;;;;;5030520;28;20363;-72
2024/02/23 08:05:03;;;;;;;103.57;97.78;;;7.30;99.90;;;;;;5033130;28;20572;-72
2024/02/23 08:07:30;;;;;;;107.03;100.57;;;7.40;99.90;;;;;;5030886;28;20489;-72
2024/02/23 08:09:57;;;;;;;100.80;95.28;;;7.40;99.90;;;;;;5031398;28;20038;-72
2024/02/23 08:12:23;;;;;;;95.15;90.13;;;7.40;99.90;;;;;;5030721;28;20050;-72
2024/02/23 08:14:53;;;;;;;102.55;97.10;;;7.50;99.90;;;;;;5030858;28;20022;-72
2024/02/23 08:17:19;;;;;;;108.25;102.68;;;7.50;99.90;;;;;;5030496;28;20410;-72
2024/02/23 08:19:46;;;;;;;94.82;89.63;;;7.60;99.90;;;;;;5030731;28;20033;-72
2024/02/23 08:22:12;;;;;;;127.00;120.43;;;7.60;99.90;;;;;;5035477;28;20049;-72
2024/02/23 08:24:39;;;;;;;136.10;129.02;;;7.60;99.90;;;;;;5035777;28;20406;-72
2024/02/23 08:27:05;;;;;;;145.25;137.30;;;7.50;99.90;;;;;;5034868;28;20057;-72
2024/02/23 08:29:31;;;;;;;121.05;114.63;;;7.50;99.90;;;;;;5035678;28;20060;-72
2024/02/23 08:31:57;;;;;;;99.47;94.15;;;7.40;99.90;;;;;;5033940;28;20033;-72
2024/02/23 08:34:24;;;;;;;125.75;119.07;;;7.40;99.90;;;;;;5034108;28;20029;-72
2024/02/23 08:36:51;;;;;;;116.32;110.38;;;7.50;99.90;;;;;;5035106;28;20034;-72
2024/02/23 08:39:17;;;;;;;110.60;105.00;;;7.40;99.90;;;;;;5035469;28;20517;-72
2024/02/23 08:41:43;;;;;;;113.45;107.63;;;7.50;99.90;;;;;;5034969;28;20042;-72
2024/02/23 08:44:09;;;;;;;115.60;109.53;;;7.50;99.90;;;;;;5035434;28;20037;-72
2024/02/23 08:46:37;;;;;;;114.63;108.47;;;7.60;99.90;;;;;;5033722;28;20044;-72
2024/02/23 08:49:03;;;;;;;107.75;102.03;;;7.60;99.90;;;;;;5035085;28;20057;-72
2024/02/23 08:51:29;;;;;;;103.97;98.60;;;7.70;99.90;;;;;;5034559;28;20029;-72
2024/02/23 08:53:57;;;;;;;107.38;101.85;;;7.80;99.90;;;;;;5035157;28;20030;-72
2024/02/23 08:56:23;;;;;;;109.95;104.18;;;7.90;99.90;;;;;;5033596;28;20049;-73
2024/02/23 08:58:49;;;;;;;65.63;62.35;;;8.00;99.90;;;;;;5032892;28;20536;-71
2024/02/23 09:01:15;;;;;;;122.85;116.38;;;8.10;99.90;;;;;;5031348;28;20049;-72
2024/02/23 09:03:41;;;;;;;137.73;130.13;;;8.20;99.90;;;;;;5033991;28;20021;-72
2024/02/23 09:06:07;;;;;;;167.52;158.20;;;8.30;99.90;;;;;;5034225;28;20025;-72
2024/02/23 09:08:33;;;;;;;198.23;187.68;;;8.40;99.90;;;;;;5034604;28;20046;-72
2024/02/23 09:10:59;;;;;;;137.82;130.20;;;8.50;99.90;;;;;;5034638;28;20025;-72
2024/02/23 09:13:27;;;;;;;117.70;111.22;;;8.60;99.90;;;;;;5033585;28;20402;-72
2024/02/23 09:15:53;;;;;;;157.60;149.52;;;8.70;99.90;;;;;;5033776;28;20037;-72
2024/02/23 09:18:20;;;;;;;131.13;124.22;;;8.90;99.90;;;;;;5035082;28;20391;-73
2024/02/23 09:20:46;;;;;;;106.05;100.35;;;9.00;99.90;;;;;;5032349;28;20041;-72
2024/02/23 09:23:12;;;;;;;103.00;97.88;;;9.10;99.90;;;;;;5034550;28;20052;-72
2024/02/23 09:25:39;;;;;;;144.30;136.90;;;9.10;99.90;;;;;;5034683;28;20463;-72
2024/02/23 09:28:05;;;;;;;143.80;135.70;;;9.10;99.90;;;;;;5035872;28;20037;-72
2024/02/23 09:30:31;;;;;;;116.35;110.43;;;9.00;99.90;;;;;;5033303;28;20049;-72
2024/02/23 09:32:57;;;;;;;147.60;139.52;;;8.90;99.90;;;;;;5034032;28;20034;-72
2024/02/23 09:35:24;;;;;;;137.32;129.68;;;8.90;99.90;;;;;;5032983;28;20467;-72
2024/02/23 09:37:50;;;;;;;122.30;115.60;;;8.90;99.90;;;;;;5034440;28;20479;-72
2024/02/23 09:40:16;;;;;;;135.80;128.30;;;8.90;99.90;;;;;;5032799;28;20028;-73
2024/02/23 09:42:42;;;;;;;149.23;140.15;;;8.90;99.90;;;;;;5034265;28;20406;-72
2024/02/23 09:45:08;;;;;;;127.70;120.65;;;8.90;99.90;;;;;;5032093;28;20036;-72
2024/02/23 09:47:34;;;;;;;147.60;139.07;;;8.90;99.90;;;;;;4999998;28;20157;-72
2024/02/23 09:50:03;;;;;;;164.90;156.07;;;9.00;99.90;;;;;;5033124;28;20034;-72
2024/02/23 09:52:29;;;;;;;127.30;120.88;;;9.20;99.90;;;;;;5016211;28;20387;-72
2024/02/23 09:54:55;;;;;;;144.68;137.27;;;9.20;99.90;;;;;;5033892;28;20037;-72
2024/02/23 09:57:21;;;;;;;171.35;162.30;;;9.30;99.90;;;;;;5032911;28;20406;-72
2024/02/23 09:59:49;;;;;;;176.65;167.60;;;9.30;99.90;;;;;;5031089;28;20036;-72
2024/02/23 10:02:16;;;;;;;251.90;237.77;;;9.40;99.90;;;;;;5031290;28;20036;-73
2024/02/23 10:04:46;;;;;;;318.90;300.10;;;9.60;99.90;;;;;;5032830;28;20031;-72
2024/02/23 10:07:16;;;;;;;141.25;133.85;;;9.70;99.90;;;;;;5033602;28;20045;-72
2024/02/23 10:09:42;;;;;;;218.98;207.77;;;9.80;99.90;;;;;;5033104;28;20057;-71
2024/02/23 10:12:08;;;;;;;137.30;130.25;;;10.00;99.90;;;;;;5032541;28;20045;-72
2024/02/23 10:14:34;;;;;;;288.85;272.52;;;10.20;99.90;;;;;;5032555;28;20044;-73
2024/02/23 10:17:01;;;;;;;1999.90;999.90;;;10.20;99.90;;;;;;5032748;28;20030;-72
2024/02/23 10:19:29;;;;;;;738.95;474.83;;;10.20;99.90;;;;;;5033499;28;20509;-73
2024/02/23 10:21:56;;;;;;;247.05;231.57;;;10.30;99.90;;;;;;5032508;28;20037;-72
2024/02/23 10:24:25;;;;;;;666.15;406.65;;;10.20;99.90;;;;;;5033174;28;20394;-72
2024/02/23 10:26:52;;;;;;;684.38;424.40;;;10.10;99.90;;;;;;5031338;28;20048;-76
2024/02/23 10:29:18;;;;;;;685.13;425.08;;;10.00;99.90;;;;;;5028982;28;20042;-72
2024/02/23 10:31:47;;;;;;;704.83;442.90;;;9.90;99.90;;;;;;5031909;28;20033;-73
2024/02/23 10:34:14;;;;;;;682.10;422.10;;;9.90;99.90;;;;;;5031791;28;20530;-73
2024/02/23 10:36:42;;;;;;;189.48;179.20;;;9.80;99.90;;;;;;5031481;28;20021;-72
2024/02/23 10:39:12;;;;;;;167.57;158.98;;;9.70;99.90;;;;;;5030602;28;20040;-72
2024/02/23 10:41:39;;;;;;;168.57;159.65;;;9.60;99.90;;;;;;5032472;28;20045;-72
2024/02/23 10:44:05;;;;;;;153.40;145.68;;;9.50;99.90;;;;;;5014828;28;20052;-72
2024/02/23 10:46:32;;;;;;;181.57;172.27;;;9.40;99.90;;;;;;5031558;28;20064;-72
2024/02/23 10:48:59;;;;;;;185.68;175.75;;;9.40;99.90;;;;;;5032241;28;20593;-72
2024/02/23 10:51:25;;;;;;;653.45;395.67;;;9.60;99.90;;;;;;5032715;28;20036;-72
2024/02/23 10:53:52;;;;;;;189.50;178.93;;;9.70;99.90;;;;;;5033091;28;20039;-72
2024/02/23 10:56:18;;;;;;;191.43;181.23;;;9.70;99.90;;;;;;5030787;28;20025;-72
2024/02/23 10:58:44;;;;;;;178.35;168.85;;;9.80;99.90;;;;;;5031633;28;20044;-72
2024/02/23 11:01:11;;;;;;;172.38;163.27;;;9.80;99.90;;;;;;5030529;28;20032;-73
2024/02/23 11:03:38;;;;;;;176.82;167.63;;;9.80;99.90;;;;;;5030922;28;20386;-72
2024/02/23 11:06:07;;;;;;;645.33;387.92;;;9.70;99.90;;;;;;5030636;28;20402;-72
2024/02/23 11:08:33;;;;;;;168.38;159.82;;;9.70;99.90;;;;;;5031382;28;20038;-73
2024/02/23 11:11:07;;;;;;;690.80;422.08;;;9.70;99.90;;;;;;5029933;28;20025;-72
2024/02/23 11:13:40;;;;;;;1999.90;999.90;;;9.80;99.90;;;;;;5032767;28;20036;-72
2024/02/23 11:16:08;;;;;;;649.88;391.83;;;9.90;99.90;;;;;;5030515;28;20030;-72
2024/02/23 11:18:39;;;;;;;1999.90;999.90;;;9.90;99.90;;;;;;4997000;28;20045;-73
2024/02/23 11:21:06;;;;;;;154.77;146.82;;;10.00;99.90;;;;;;5030921;28;20032;-71
2024/02/23 11:24:04;;;;;;;1999.90;999.90;;;10.10;99.90;;;;;;5030126;28;20698;-73
2024/02/23 11:26:33;;;;;;;1999.90;999.90;;;10.20;99.90;;;;;;4969308;28;20103;-73
2024/02/23 11:28:59;;;;;;;1999.90;999.90;;;10.40;99.90;;;;;;4969328;28;20074;-73
2024/02/23 11:31:30;;;;;;;1999.90;999.90;;;10.50;99.90;;;;;;4969070;28;20043;-73
2024/02/23 11:33:56;;;;;;;1999.90;999.90;;;10.60;99.90;;;;;;4970943;28;20042;-73
2024/02/23 11:36:23;;;;;;;1999.90;999.90;;;10.60;99.90;;;;;;4971034;28;20384;-73
2024/02/23 11:38:54;;;;;;;1999.90;999.90;;;10.70;99.90;;;;;;4968610;28;20534;-73
2024/02/23 11:41:24;;;;;;;1099.32;593.47;;;10.80;99.90;;;;;;4967088;28;20051;-73
2024/02/23 11:43:51;;;;;;;1999.90;999.90;;;10.80;99.90;;;;;;4970573;28;20094;-73
2024/02/23 11:46:17;;;;;;;1999.90;999.90;;;10.70;99.90;;;;;;4954116;28;20034;-74
2024/02/23 11:48:46;;;;;;;1999.90;999.90;;;10.70;99.90;;;;;;4969891;28;20397;-74
2024/02/23 11:51:13;;;;;;;1999.90;999.90;;;10.60;99.90;;;;;;4969542;28;20061;-73
2024/02/23 11:53:39;;;;;;;1999.90;999.90;;;10.60;99.90;;;;;;4969746;28;20074;-74
2024/02/23 11:56:06;;;;;;;1999.90;999.90;;;10.50;99.90;;;;;;4969662;28;20054;-73
2024/02/23 11:58:35;;;;;;;1999.90;999.90;;;10.40;99.90;;;;;;4953187;28;20031;-73
2024/02/23 12:01:02;;;;;;;1999.90;999.90;;;10.30;99.90;;;;;;4953837;28;20039;-73
2024/02/23 12:03:31;;;;;;;1999.90;999.90;;;10.10;99.90;;;;;;5031259;28;20053;-74
2024/02/23 12:05:58;;;;;;;1552.70;799.83;;;10.00;99.90;;;;;;5031245;28;20029;-74
2024/02/23 12:08:25;;;;;;;1564.97;811.22;;;9.80;99.90;;;;;;5028294;28;20058;-73
2024/02/23 12:10:56;;;;;;;249.52;235.80;;;9.70;99.90;;;;;;5029447;28;20136;-73
2024/02/23 12:13:22;;;;;;;203.43;192.25;;;9.60;99.90;;;;;;5014218;28;20040;-73
2024/02/23 12:15:50;;;;;;;259.05;245.30;;;9.50;99.90;;;;;;5030729;28;20371;-73
2024/02/23 12:18:16;;;;;;;252.38;238.40;;;9.50;99.90;;;;;;5029923;28;20038;-73